Time;durP1;ratioP1;P1;durP2;ratioP2;P2;SDS_P1;SDS_P2;PMS_P1;PMS_P2;Temp;Humidity;BMP_temperature;BMP_pressure;BME280_temperature;BME280_humidity;BME280_pressure;Samples;Min_cycle;Max_cycle;Signal;HPM_P1;HPM_P2
2023/08/02 00:00:03;;;;;;;10.00;3.17;;;;;;;15.75;100.00;99879.00;4988491;28;20086;-72
2023/08/02 00:02:30;;;;;;;11.77;3.40;;;;;;;15.85;100.00;99871.34;4991537;28;20050;-69
2023/08/02 00:04:56;;;;;;;10.20;3.35;;;;;;;15.83;100.00;99869.00;4973634;28;20061;-72
2023/08/02 00:07:29;;;;;;;9.00;2.83;;;;;;;15.73;100.00;99863.94;4989578;28;20058;-71
2023/08/02 00:09:56;;;;;;;9.68;3.20;;;;;;;15.71;100.00;99863.63;4990061;28;20046;-72
2023/08/02 00:12:23;;;;;;;10.45;3.00;;;;;;;15.68;100.00;99873.75;4989763;28;20129;-74
2023/08/02 00:14:49;;;;;;;12.35;3.70;;;;;;;15.65;100.00;99865.50;4985523;28;20414;-71
2023/08/02 00:17:16;;;;;;;11.82;4.43;;;;;;;15.65;100.00;99860.69;4987945;28;20137;-74
2023/08/02 00:19:42;;;;;;;13.45;3.63;;;;;;;15.70;100.00;99862.81;4989079;28;20050;-73
2023/08/02 00:22:09;;;;;;;12.20;3.05;;;;;;;15.65;100.00;99851.50;4989999;28;20426;-71
2023/08/02 00:24:35;;;;;;;14.90;3.40;;;;;;;15.60;100.00;99854.94;4986159;28;20129;-72
2023/08/02 00:27:02;;;;;;;18.23;5.38;;;;;;;15.60;100.00;99852.94;4987811;28;20165;-71
2023/08/02 00:29:28;;;;;;;11.30;3.05;;;;;;;15.55;100.00;99863.97;4982686;28;20058;-72
2023/08/02 00:31:55;;;;;;;9.88;3.00;;;;;;;15.52;100.00;99862.13;4986278;28;20105;-72
2023/08/02 00:34:21;;;;;;;8.60;3.00;;;;;;;15.51;100.00;99858.56;4988573;28;20085;-72
2023/08/02 00:36:48;;;;;;;8.48;3.53;;;;;;;15.51;100.00;99852.16;4989329;28;20053;-73
2023/08/02 00:39:15;;;;;;;13.95;3.47;;;;;;;15.45;100.00;99854.81;4989370;28;20050;-72
2023/08/02 00:41:41;;;;;;;11.95;3.45;;;;;;;15.46;100.00;99850.00;4984180;28;20633;-70
2023/08/02 00:44:08;;;;;;;16.65;3.85;;;;;;;15.35;100.00;99850.47;4988391;28;20101;-72
2023/08/02 00:46:34;;;;;;;17.33;3.50;;;;;;;15.45;100.00;99840.81;4994619;28;20082;-70
2023/08/02 00:49:01;;;;;;;14.20;4.07;;;;;;;15.40;100.00;99846.28;4985259;28;20054;-72
2023/08/02 00:51:31;;;;;;;14.25;3.40;;;;;;;15.44;100.00;99839.28;4990632;28;20050;-72
2023/08/02 00:54:02;;;;;;;11.45;3.38;;;;;;;15.41;100.00;99847.84;4992052;28;20052;-72
2023/08/02 00:56:31;;;;;;;13.65;3.10;;;;;;;15.44;100.00;99853.28;4992105;28;20502;-73
2023/08/02 00:58:58;;;;;;;10.07;3.10;;;;;;;15.44;100.00;99850.47;4992159;28;20055;-72
2023/08/02 01:01:25;;;;;;;9.52;3.17;;;;;;;15.42;100.00;99847.38;4991727;28;20058;-72
2023/08/02 01:03:53;;;;;;;12.90;2.80;;;;;;;15.33;100.00;99841.00;4993676;28;20134;-73
2023/08/02 01:06:41;;;;;;;11.80;3.20;;;;;;;15.35;100.00;99839.25;4992807;28;20054;-72
2023/08/02 01:09:15;;;;;;;12.70;3.03;;;;;;;15.31;100.00;99833.06;4989177;28;20076;-72
2023/08/02 01:11:57;;;;;;;7.63;3.00;;;;;;;15.34;100.00;99834.91;4991780;28;20103;-73
2023/08/02 01:14:25;;;;;;;12.07;3.05;;;;;;;15.25;100.00;99820.94;4988769;28;20092;-72
2023/08/02 01:16:53;;;;;;;13.88;3.08;;;;;;;15.17;100.00;99816.91;4991293;28;20058;-73
2023/08/02 01:19:21;;;;;;;14.85;3.33;;;;;;;15.17;100.00;99813.34;4991479;28;20096;-73
2023/08/02 01:21:48;;;;;;;9.48;2.83;;;;;;;15.12;100.00;99811.94;4988216;28;20492;-72
2023/08/02 01:24:16;;;;;;;12.15;2.85;;;;;;;15.07;100.00;99812.59;4990931;28;20117;-73
2023/08/02 01:26:49;;;;;;;8.18;2.65;;;;;;;15.05;100.00;99817.09;4991004;28;20534;-71
2023/08/02 01:29:20;;;;;;;8.13;2.53;;;;;;;14.98;100.00;99809.78;4974786;28;20088;-72
2023/08/02 01:31:48;;;;;;;10.43;2.50;;;;;;;15.06;100.00;99816.63;4992546;28;20068;-73
2023/08/02 01:34:15;;;;;;;8.23;2.67;;;;;;;15.03;100.00;99814.78;4989489;28;20043;-73
2023/08/02 01:36:41;;;;;;;11.05;3.00;;;;;;;15.02;100.00;99813.19;4988634;28;20105;-73
2023/08/02 01:39:08;;;;;;;9.23;2.70;;;;;;;15.01;100.00;99820.06;4990745;28;20046;-73
2023/08/02 01:41:35;;;;;;;9.32;3.08;;;;;;;14.94;100.00;99809.19;4989796;28;20058;-72
2023/08/02 01:44:01;;;;;;;12.05;3.53;;;;;;;14.92;100.00;99811.66;4991187;28;20050;-72
2023/08/02 01:46:33;;;;;;;14.27;3.40;;;;;;;14.96;100.00;99812.31;4991546;28;20062;-71
2023/08/02 01:48:59;;;;;;;16.45;3.03;;;;;;;14.89;100.00;99807.78;4991724;28;20089;-72
2023/08/02 01:51:26;;;;;;;10.13;3.00;;;;;;;14.86;100.00;99805.16;4991380;28;20415;-72
2023/08/02 01:53:52;;;;;;;12.38;2.85;;;;;;;14.85;100.00;99811.97;4990390;28;20042;-72
2023/08/02 01:56:19;;;;;;;15.52;4.63;;;;;;;14.87;100.00;99813.09;4991498;28;20057;-72
2023/08/02 01:58:46;;;;;;;9.80;3.53;;;;;;;14.87;100.00;99804.69;4990333;28;20050;-72
2023/08/02 02:01:12;;;;;;;14.57;3.25;;;;;;;14.89;100.00;99802.19;4991268;28;20113;-71
2023/08/02 02:03:39;;;;;;;8.48;2.72;;;;;;;14.84;100.00;99794.44;4989627;28;20054;-71
2023/08/02 02:06:05;;;;;;;13.35;3.10;;;;;;;14.87;100.00;99792.72;4991256;28;20573;-71
2023/08/02 02:08:32;;;;;;;12.00;3.25;;;;;;;14.88;100.00;99783.84;4991016;28;20046;-72
2023/08/02 02:10:59;;;;;;;9.18;3.03;;;;;;;14.84;100.00;99782.47;4991194;28;20230;-72
2023/08/02 02:13:30;;;;;;;10.82;3.00;;;;;;;14.85;100.00;99779.19;4989683;28;20050;-71
2023/08/02 02:16:01;;;;;;;;;;;;;;;14.77;100.00;99777.19;4991717;28;20054;-69
2023/08/02 02:18:27;;;;;;;13.15;3.13;;;;;;;14.83;100.00;99781.66;4990477;28;19930;-74
2023/08/02 02:20:54;;;;;;;10.98;3.22;;;;;;;14.90;100.00;99778.56;4988747;28;20074;-71
2023/08/02 02:23:20;;;;;;;11.73;2.95;;;;;;;14.88;100.00;99783.84;4995336;28;20046;-72
2023/08/02 02:25:47;;;;;;;7.35;3.40;;;;;;;14.84;100.00;99777.66;4989217;28;20152;-73
2023/08/02 02:28:19;;;;;;;8.90;2.78;;;;;;;14.81;100.00;99775.00;4987965;28;20057;-71
2023/08/02 02:30:46;;;;;;;8.30;2.67;;;;;;;14.77;100.00;99777.97;4984148;28;20137;-71
2023/08/02 02:33:12;;;;;;;7.82;2.75;;;;;;;14.80;100.00;99770.66;4988918;28;20050;-71
2023/08/02 02:35:39;;;;;;;11.00;3.20;;;;;;;14.91;100.00;99760.53;4989709;28;20046;-74
2023/08/02 02:38:05;;;;;;;7.32;2.42;;;;;;;14.78;100.00;99756.34;4989651;28;20085;-72
2023/08/02 02:40:32;;;;;;;7.63;3.42;;;;;;;14.84;100.00;99760.84;4990709;28;20046;-72
2023/08/02 02:42:58;;;;;;;11.70;2.83;;;;;;;14.87;100.00;99759.13;4989123;28;20096;-71
2023/08/02 02:45:25;;;;;;;6.85;2.92;;;;;;;14.87;100.00;99773.13;4989216;28;20057;-73
2023/08/02 02:47:51;;;;;;;12.57;3.60;;;;;;;14.84;100.00;99768.47;4987627;28;20054;-73
2023/08/02 02:50:18;;;;;;;10.60;3.00;;;;;;;14.82;100.00;99754.94;4989465;28;20129;-73
2023/08/02 02:52:46;;;;;;;10.15;2.47;;;;;;;14.87;100.00;99747.94;4991456;28;20050;-73
2023/08/02 02:55:13;;;;;;;9.95;3.03;;;;;;;14.84;100.00;99744.06;4988265;28;20487;-71
2023/08/02 02:57:39;;;;;;;9.48;2.95;;;;;;;14.77;100.00;99726.81;4988897;28;20136;-72
2023/08/02 03:00:08;;;;;;;10.65;2.75;;;;;;;14.93;100.00;99715.28;4991734;28;20058;-71
2023/08/02 03:02:34;;;;;;;12.07;3.17;;;;;;;14.90;100.00;99707.81;4987891;28;20534;-70
2023/08/02 03:05:01;;;;;;;12.65;3.25;;;;;;;14.90;100.00;99693.84;4987081;28;20533;-71
2023/08/02 03:07:28;;;;;;;13.80;2.80;;;;;;;14.89;100.00;99698.66;4988922;28;20050;-71
2023/08/02 03:09:55;;;;;;;9.93;2.90;;;;;;;14.82;100.00;99701.03;4990213;28;20108;-71
2023/08/02 03:12:22;;;;;;;8.35;2.70;;;;;;;14.77;100.00;99690.44;4989558;28;20058;-70
2023/08/02 03:14:49;;;;;;;9.63;2.88;;;;;;;14.86;100.00;99693.22;4989294;28;20050;-71
2023/08/02 03:17:18;;;;;;;12.82;2.90;;;;;;;14.94;100.00;99700.03;4988691;28;20483;-72
2023/08/02 03:19:45;;;;;;;13.18;2.92;;;;;;;14.92;100.00;99697.72;4989298;28;20474;-73
2023/08/02 03:22:11;;;;;;;11.43;3.10;;;;;;;14.99;100.00;99685.41;4988296;28;20474;-73
2023/08/02 03:24:43;;;;;;;12.90;3.53;;;;;;;14.98;100.00;99688.69;4988625;28;20051;-73
2023/08/02 03:27:10;;;;;;;16.25;3.70;;;;;;;15.01;100.00;99685.72;4989883;28;20062;-72
2023/08/02 03:29:36;;;;;;;14.82;4.28;;;;;;;15.06;100.00;99678.69;4989064;28;20568;-72
2023/08/02 03:32:03;;;;;;;13.50;3.17;;;;;;;15.02;100.00;99679.63;4991081;28;20085;-70
2023/08/02 03:34:30;;;;;;;10.40;3.30;;;;;;;15.02;100.00;99675.31;4987846;28;20046;-72
2023/08/02 03:36:56;;;;;;;13.52;3.72;;;;;;;15.02;100.00;99681.66;4988871;28;20069;-72
2023/08/02 03:39:27;;;;;;;11.02;2.95;;;;;;;15.08;100.00;99662.22;4988920;28;20050;-69
2023/08/02 03:41:59;;;;;;;8.40;2.70;;;;;;;15.02;100.00;99659.25;4987615;28;20137;-70
2023/08/02 03:44:25;;;;;;;9.52;3.33;;;;;;;15.03;100.00;99667.19;4988792;28;20572;-71
2023/08/02 03:46:52;;;;;;;10.52;3.00;;;;;;;15.12;100.00;99663.56;4989096;28;20129;-71
2023/08/02 03:49:19;;;;;;;13.85;2.80;;;;;;;15.17;100.00;99645.38;4988472;28;20120;-72
2023/08/02 03:51:46;;;;;;;12.73;3.40;;;;;;;15.15;100.00;99623.44;4986938;28;20502;-72
2023/08/02 03:54:16;;;;;;;10.45;2.80;;;;;;;15.19;100.00;99623.28;4993547;28;20050;-72
2023/08/02 03:56:44;;;;;;;7.32;2.97;;;;;;;15.18;100.00;99622.50;4987459;28;20046;-69
2023/08/02 03:59:11;;;;;;;12.05;3.22;;;;;;;15.17;100.00;99612.56;4988170;28;20062;-71
2023/08/02 04:01:44;;;;;;;13.50;3.75;;;;;;;15.13;100.00;99603.56;4985907;28;20533;-72
2023/08/02 04:04:11;;;;;;;10.88;3.65;;;;;;;15.25;100.00;99602.53;4988697;28;20046;-71
2023/08/02 04:06:37;;;;;;;14.43;3.50;;;;;;;15.27;100.00;99602.06;4988216;28;20081;-72
2023/08/02 04:09:04;;;;;;;15.18;3.65;;;;;;;15.24;100.00;99614.22;4985293;28;20109;-72
2023/08/02 04:11:31;;;;;;;11.60;2.95;;;;;;;15.25;100.00;99618.59;4986606;28;20870;-70
2023/08/02 04:13:58;;;;;;;12.82;3.45;;;;;;;15.28;100.00;99623.22;4990139;28;20101;-71
2023/08/02 04:16:24;;;;;;;10.90;3.15;;;;;;;15.26;100.00;99636.94;4987049;28;20057;-69
2023/08/02 04:18:51;;;;;;;10.60;4.10;;;;;;;15.29;100.00;99631.13;4988370;28;20550;-70
2023/08/02 04:21:19;;;;;;;11.38;3.30;;;;;;;15.24;100.00;99620.59;4988418;28;20054;-70
2023/08/02 04:23:48;;;;;;;16.42;3.13;;;;;;;15.35;100.00;99615.22;4988026;28;20046;-70
2023/08/02 04:26:17;;;;;;;16.13;4.85;;;;;;;15.34;100.00;99596.09;4987563;28;20061;-72
2023/08/02 04:28:46;;;;;;;13.07;3.15;;;;;;;15.32;100.00;99582.59;4967775;28;20046;-70
2023/08/02 04:31:14;;;;;;;9.63;3.05;;;;;;;15.33;100.00;99578.56;4985536;28;20549;-71
2023/08/02 04:33:41;;;;;;;9.75;2.83;;;;;;;15.36;100.00;99566.41;4987783;28;20765;-70
2023/08/02 04:36:07;;;;;;;8.77;2.92;;;;;;;15.31;100.00;99569.84;4988061;28;20565;-72
2023/08/02 04:38:46;;;;;;;9.65;2.88;;;;;;;15.40;100.00;99567.03;4966603;28;20057;-71
2023/08/02 04:41:15;;;;;;;15.52;3.33;;;;;;;15.47;100.00;99544.25;4987107;28;20092;-70
2023/08/02 04:43:42;;;;;;;9.27;2.70;;;;;;;15.50;100.00;99534.91;4986383;28;20111;-73
2023/08/02 04:46:11;;;;;;;11.02;2.92;;;;;;;15.54;100.00;99531.91;4986928;28;20050;-71
2023/08/02 04:48:39;;;;;;;11.02;2.97;;;;;;;15.54;100.00;99523.50;4986165;28;20109;-70
2023/08/02 04:51:09;;;;;;;7.72;2.75;;;;;;;15.46;100.00;99503.47;4970994;28;20082;-71
2023/08/02 04:53:42;;;;;;;11.63;3.08;;;;;;;15.60;100.00;99490.75;4984049;28;20054;-71
2023/08/02 04:56:09;;;;;;;8.63;2.53;;;;;;;15.57;100.00;99486.91;4985953;28;20046;-72
2023/08/02 04:58:36;;;;;;;8.30;2.40;;;;;;;15.55;100.00;99489.41;4974698;28;20119;-71
2023/08/02 05:01:04;;;;;;;13.38;3.88;;;;;;;15.68;100.00;99480.72;4986145;28;20062;-72
2023/08/02 05:03:32;;;;;;;9.35;2.42;;;;;;;15.61;100.00;99469.91;4986022;28;20482;-72
2023/08/02 05:06:03;;;;;;;11.00;2.50;;;;;;;15.72;100.00;99470.09;4983156;28;20050;-73
2023/08/02 05:08:35;;;;;;;8.93;2.92;;;;;;;15.64;100.00;99463.31;4969162;28;20073;-72
2023/08/02 05:11:04;;;;;;;7.05;2.45;;;;;;;15.66;100.00;99455.97;4979872;28;20062;-72
2023/08/02 05:13:31;;;;;;;6.38;2.75;;;;;;;15.72;100.00;99459.66;4985447;28;20585;-71
2023/08/02 05:15:58;;;;;;;7.25;2.40;;;;;;;15.83;100.00;99451.44;4985859;28;20111;-73
2023/08/02 05:18:26;;;;;;;10.30;2.70;;;;;;;15.89;100.00;99455.13;4984369;28;20058;-72
2023/08/02 05:20:53;;;;;;;7.57;2.55;;;;;;;15.92;100.00;99451.34;4987026;28;20116;-71
2023/08/02 05:23:20;;;;;;;9.75;2.72;;;;;;;15.94;100.00;99448.84;4984494;28;20050;-72
2023/08/02 05:25:47;;;;;;;7.22;2.38;;;;;;;15.92;100.00;99442.94;4986061;28;20054;-72
2023/08/02 05:28:13;;;;;;;7.32;2.90;;;;;;;15.97;100.00;99438.69;4987371;28;20058;-72
2023/08/02 05:30:42;;;;;;;7.95;2.28;;;;;;;15.99;100.00;99436.94;4987483;28;20137;-71
2023/08/02 05:33:09;;;;;;;6.22;2.20;;;;;;;16.04;100.00;99430.66;4986169;28;20058;-72
2023/08/02 05:35:35;;;;;;;6.70;2.40;;;;;;;16.07;100.00;99423.31;4986808;28;20054;-73
2023/08/02 05:38:02;;;;;;;7.47;2.22;;;;;;;16.11;100.00;99416.25;4988112;28;20089;-72
2023/08/02 05:40:28;;;;;;;10.95;2.70;;;;;;;16.16;100.00;99404.34;4988956;28;20136;-71
2023/08/02 05:42:58;;;;;;;8.95;2.83;;;;;;;16.20;100.00;99388.09;4988009;28;20649;-70
2023/08/02 05:45:24;;;;;;;7.07;3.10;;;;;;;16.24;100.00;99383.03;4989998;28;20058;-71
2023/08/02 05:47:51;;;;;;;7.18;2.50;;;;;;;16.27;100.00;99378.53;4989668;28;20718;-70
2023/08/02 05:50:18;;;;;;;6.28;2.38;;;;;;;16.34;100.00;99370.47;4990008;28;20061;-71
2023/08/02 05:52:44;;;;;;;9.95;2.92;;;;;;;16.34;100.00;99370.47;4988639;28;20142;-71
2023/08/02 05:55:11;;;;;;;12.48;2.97;;;;;;;16.26;100.00;99377.75;4972340;28;20046;-72
2023/08/02 05:57:39;;;;;;;9.23;3.05;;;;;;;16.31;100.00;99367.88;4988183;28;20577;-72
2023/08/02 06:00:07;;;;;;;8.35;2.58;;;;;;;16.31;100.00;99360.22;4991043;28;20105;-71
2023/08/02 06:02:33;;;;;;;7.82;2.50;;;;;;;16.40;100.00;99365.72;4968932;28;20062;-69
2023/08/02 06:05:00;;;;;;;11.27;2.97;;;;;;;16.37;100.00;99357.53;4989965;28;20054;-72
2023/08/02 06:07:30;;;;;;;9.40;2.75;;;;;;;16.31;100.00;99354.63;4990769;28;20569;-72
2023/08/02 06:09:56;;;;;;;2.55;1.60;;;;;;;16.34;100.00;99341.69;4989610;28;20113;-72
2023/08/02 06:12:23;;;;;;;6.80;2.85;;;;;;;16.40;100.00;99340.47;4990786;28;20137;-72
2023/08/02 06:14:49;;;;;;;10.10;2.92;;;;;;;16.30;100.00;99347.47;4989574;28;20047;-71
2023/08/02 06:17:16;;;;;;;8.48;3.00;;;;;;;16.28;100.00;99338.81;4990340;28;20053;-71
2023/08/02 06:19:43;;;;;;;2.67;1.38;;;;;;;16.25;100.00;99339.78;4989837;28;20050;-72
2023/08/02 06:22:09;;;;;;;5.95;2.40;;;;;;;16.43;100.00;99333.88;4993134;28;20050;-71
2023/08/02 06:24:36;;;;;;;9.10;3.17;;;;;;;16.40;100.00;99326.47;4989716;28;20056;-73
2023/08/02 06:27:03;;;;;;;8.38;3.20;;;;;;;16.35;100.00;99321.56;4988426;28;20116;-71
2023/08/02 06:29:29;;;;;;;5.43;2.25;;;;;;;16.29;100.00;99326.31;4989062;28;20081;-71
2023/08/02 06:31:56;;;;;;;9.45;3.03;;;;;;;16.39;100.00;99333.34;4988240;28;20053;-71
2023/08/02 06:34:22;;;;;;;8.93;2.78;;;;;;;16.08;100.00;99324.72;4989679;28;20471;-72
2023/08/02 06:36:49;;;;;;;8.55;3.53;;;;;;;16.09;100.00;99331.09;4989338;28;20072;-72
2023/08/02 06:39:16;;;;;;;8.70;3.25;;;;;;;16.19;100.00;99329.69;4988590;28;20116;-72
2023/08/02 06:41:42;;;;;;;8.77;3.10;;;;;;;16.06;100.00;99327.22;4988807;28;20058;-72
2023/08/02 06:44:09;;;;;;;6.32;3.10;;;;;;;15.98;100.00;99320.50;4991102;28;20054;-72
2023/08/02 06:46:36;;;;;;;9.98;3.75;;;;;;;15.96;100.00;99323.00;4983768;28;20054;-72
2023/08/02 06:49:02;;;;;;;8.23;3.20;;;;;;;15.94;100.00;99319.94;4988619;28;20112;-72
2023/08/02 06:51:29;;;;;;;3.63;1.55;;;;;;;15.78;100.00;99311.25;4988619;28;20058;-72
2023/08/02 06:53:57;;;;;;;12.43;3.53;;;;;;;15.74;100.00;99317.06;4988208;28;20042;-72
2023/08/02 06:56:24;;;;;;;11.85;4.05;;;;;;;15.75;100.00;99315.03;4986593;28;20057;-71
2023/08/02 06:58:51;;;;;;;12.65;4.00;;;;;;;15.69;100.00;99317.75;4990034;28;20081;-71
2023/08/02 07:01:22;;;;;;;8.55;2.88;;;;;;;15.61;100.00;99310.22;4988914;28;20112;-72
2023/08/02 07:03:49;;;;;;;11.23;3.17;;;;;;;15.68;100.00;99310.59;4988690;28;20046;-72
2023/08/02 07:06:18;;;;;;;11.55;4.97;;;;;;;15.63;100.00;99316.88;4986695;28;20137;-72
2023/08/02 07:08:46;;;;;;;10.13;3.97;;;;;;;15.68;100.00;99307.81;4973456;28;20430;-71
2023/08/02 07:11:12;;;;;;;11.07;3.30;;;;;;;15.64;100.00;99304.44;4988060;28;20086;-71
2023/08/02 07:13:56;;;;;;;10.38;4.38;;;;;;;15.74;100.00;99291.06;4987411;28;20054;-71
2023/08/02 07:16:23;;;;;;;12.43;4.57;;;;;;;15.77;100.00;99276.09;4987934;28;20138;-72
2023/08/02 07:18:49;;;;;;;14.02;4.07;;;;;;;15.76;100.00;99269.72;4988801;28;20441;-73
2023/08/02 07:21:16;;;;;;;16.80;4.40;;;;;;;15.73;100.00;99281.13;4989034;28;20060;-72
2023/08/02 07:23:42;;;;;;;10.13;3.95;;;;;;;15.79;100.00;99279.16;4985707;28;20145;-73
2023/08/02 07:26:09;;;;;;;14.20;4.97;;;;;;;15.77;100.00;99276.88;4986590;28;20053;-74
2023/08/02 07:28:36;;;;;;;11.30;3.65;;;;;;;15.74;100.00;99277.84;4980993;28;20092;-72
2023/08/02 07:31:06;;;;;;;11.25;4.18;;;;;;;15.76;100.00;99280.91;4988843;28;20105;-71
2023/08/02 07:33:33;;;;;;;11.88;4.00;;;;;;;15.78;100.00;99274.84;4987043;28;20486;-72
2023/08/02 07:35:59;;;;;;;10.93;3.92;;;;;;;15.72;100.00;99274.75;4983677;28;20113;-72
2023/08/02 07:38:26;;;;;;;10.82;4.20;;;;;;;15.81;100.00;99274.66;4987360;28;20097;-71
2023/08/02 07:40:53;;;;;;;11.85;4.10;;;;;;;15.89;100.00;99264.56;4988207;28;20097;-72
2023/08/02 07:43:19;;;;;;;13.95;4.25;;;;;;;15.95;100.00;99254.19;4985804;28;20078;-71
2023/08/02 07:45:46;;;;;;;13.38;4.43;;;;;;;15.93;100.00;99259.50;4988442;28;20074;-72
2023/08/02 07:48:13;;;;;;;11.35;4.13;;;;;;;15.95;100.00;99256.22;4986500;28;20546;-72
2023/08/02 07:50:40;;;;;;;11.43;4.22;;;;;;;16.02;100.00;99258.59;4987037;28;20050;-71
2023/08/02 07:53:07;;;;;;;8.55;3.75;;;;;;;16.05;100.00;99252.03;4989203;28;20155;-72
2023/08/02 07:55:33;;;;;;;10.82;3.38;;;;;;;15.99;100.00;99242.78;4986218;28;20073;-73
2023/08/02 07:58:00;;;;;;;10.23;3.83;;;;;;;16.03;100.00;99235.69;4985765;28;20065;-72
2023/08/02 08:00:27;;;;;;;12.20;3.67;;;;;;;15.98;100.00;99230.03;4986615;28;20054;-73
2023/08/02 08:02:53;;;;;;;10.57;3.63;;;;;;;15.96;100.00;99222.09;4989101;28;20046;-72
2023/08/02 08:05:20;;;;;;;11.63;3.50;;;;;;;15.95;100.00;99214.19;4984477;28;20057;-73
2023/08/02 08:07:46;;;;;;;10.75;3.58;;;;;;;15.93;100.00;99206.25;4982390;28;20086;-72
2023/08/02 08:10:13;;;;;;;14.05;3.67;;;;;;;16.03;100.00;99196.47;4982968;28;20054;-73
2023/08/02 08:12:39;;;;;;;9.95;3.42;;;;;;;16.03;100.00;99182.44;4985321;28;20606;-73
2023/08/02 08:15:07;;;;;;;7.28;3.10;;;;;;;16.04;100.00;99178.38;4987651;28;20081;-73
2023/08/02 08:17:34;;;;;;;8.18;3.10;;;;;;;16.13;100.00;99178.22;4989322;28;20050;-72
2023/08/02 08:20:05;;;;;;;13.35;3.13;;;;;;;16.15;100.00;99166.53;4968996;28;20133;-72
2023/08/02 08:22:32;;;;;;;8.48;3.08;;;;;;;16.27;100.00;99176.66;4987454;28;20128;-72
2023/08/02 08:24:58;;;;;;;3.92;2.30;;;;;;;16.31;100.00;99180.00;4986392;28;20469;-72
2023/08/02 08:27:25;;;;;;;5.63;2.55;;;;;;;16.36;100.00;99163.25;4987807;28;20057;-71
2023/08/02 08:29:51;;;;;;;6.70;2.60;;;;;;;16.28;100.00;99155.75;4988371;28;20054;-72
2023/08/02 08:32:18;;;;;;;5.47;2.13;;;;;;;16.32;100.00;99143.06;4988730;28;20054;-72
2023/08/02 08:34:45;;;;;;;4.72;2.08;;;;;;;16.37;100.00;99127.56;4985545;28;20507;-71
2023/08/02 08:37:11;;;;;;;4.10;1.85;;;;;;;16.49;100.00;99126.38;4986516;28;20140;-71
2023/08/02 08:39:38;;;;;;;4.38;1.73;;;;;;;16.50;100.00;99116.69;4987565;28;20054;-71
2023/08/02 08:42:07;;;;;;;4.65;1.90;;;;;;;16.52;100.00;99117.78;4988534;28;20054;-72
2023/08/02 08:44:37;;;;;;;4.32;1.80;;;;;;;16.58;100.00;99118.56;4992170;28;20046;-71
2023/08/02 08:47:07;;;;;;;8.32;2.67;;;;;;;16.65;100.00;99118.13;4992581;28;20558;-70
2023/08/02 08:49:34;;;;;;;3.60;1.67;;;;;;;16.55;100.00;99113.97;4986982;28;20054;-71
2023/08/02 08:52:05;;;;;;;3.40;1.67;;;;;;;16.56;100.00;99111.91;4967297;28;20117;-72
2023/08/02 08:54:36;;;;;;;2.67;1.25;;;;;;;16.51;100.00;99110.59;4987858;28;20060;-72
2023/08/02 08:57:05;;;;;;;5.45;2.38;;;;;;;16.52;100.00;99102.97;4980867;28;20108;-72
2023/08/02 08:59:32;;;;;;;4.72;2.20;;;;;;;16.57;100.00;99091.00;4984996;28;20471;-71
2023/08/02 09:01:59;;;;;;;3.60;1.73;;;;;;;16.49;100.00;99090.72;4986684;28;20042;-72
2023/08/02 09:04:26;;;;;;;2.50;1.30;;;;;;;16.37;100.00;99082.69;4985370;28;20157;-70
2023/08/02 09:06:52;;;;;;;5.43;2.33;;;;;;;16.33;100.00;99085.69;4985299;28;20149;-70
2023/08/02 09:09:19;;;;;;;4.70;2.22;;;;;;;16.42;100.00;99085.53;4982812;28;20058;-71
2023/08/02 09:11:46;;;;;;;4.60;1.98;;;;;;;16.55;100.00;99060.69;4986827;28;20105;-70
2023/08/02 09:14:14;;;;;;;3.92;1.73;;;;;;;16.54;100.00;99059.13;4989517;28;20118;-71
2023/08/02 09:17:01;;;;;;;3.40;1.77;;;;;;;16.60;100.00;99045.13;4988227;28;20062;-70
2023/08/02 09:19:34;;;;;;;4.18;2.10;;;;;;;16.72;100.00;99046.78;4986347;28;20737;-71
2023/08/02 09:22:14;;;;;;;4.82;1.90;;;;;;;16.76;100.00;99041.69;4987113;28;20066;-70
2023/08/02 09:24:45;;;;;;;5.95;2.03;;;;;;;16.83;100.00;99030.00;4981080;28;20140;-71
2023/08/02 09:27:16;;;;;;;1.70;1.25;;;;;;;16.89;100.00;99025.97;4980964;28;20070;-71
2023/08/02 09:29:53;;;;;;;3.25;1.60;;;;;;;16.87;100.00;99025.69;4990775;28;20050;-71
2023/08/02 09:32:22;;;;;;;1.83;1.05;;;;;;;16.83;100.00;99013.94;4988127;28;20058;-71
2023/08/02 09:34:55;;;;;;;1.90;0.88;;;;;;;17.02;100.00;99025.53;4989835;28;20101;-70
2023/08/02 09:37:32;;;;;;;0.55;0.55;;;;;;;17.08;100.00;98996.22;4991222;28;20124;-71
2023/08/02 09:40:00;;;;;;;4.88;1.15;;;;;;;17.20;100.00;99009.09;4990751;28;20422;-71
2023/08/02 09:42:27;;;;;;;1.95;0.88;;;;;;;17.15;100.00;99000.63;4972900;28;20503;-71
2023/08/02 09:44:59;;;;;;;3.05;1.45;;;;;;;17.32;100.00;98993.81;4991175;28;20499;-72
2023/08/02 09:47:27;;;;;;;1.90;1.30;;;;;;;17.47;100.00;98982.38;4990913;28;20060;-72
2023/08/02 09:50:03;;;;;;;3.80;1.77;;;;;;;17.72;100.00;98975.03;4989793;28;20046;-72
2023/08/02 09:52:30;;;;;;;3.28;1.20;;;;;;;17.62;100.00;98957.63;4988571;28;21416;-72
2023/08/02 09:54:57;;;;;;;1.70;1.00;;;;;;;17.77;100.00;98946.19;4972824;28;20057;-72
2023/08/02 09:57:26;;;;;;;2.45;1.20;;;;;;;17.87;100.00;98945.44;4990803;28;20054;-72
2023/08/02 10:00:02;;;;;;;1.63;1.00;;;;;;;18.11;100.00;98944.97;4990613;28;20523;-73
2023/08/02 10:02:30;;;;;;;1.17;0.80;;;;;;;17.94;100.00;98935.75;4988098;28;20124;-74
2023/08/02 10:04:57;;;;;;;1.38;0.70;;;;;;;17.99;100.00;98932.19;4989379;28;20057;-71
2023/08/02 10:07:39;;;;;;;3.22;0.70;;;;;;;18.18;100.00;98922.72;4990680;28;20542;-72
2023/08/02 10:10:12;;;;;;;2.53;1.25;;;;;;;18.18;100.00;98917.09;4988570;28;20054;-71
2023/08/02 10:12:39;;;;;;;2.03;1.20;;;;;;;18.18;100.00;98905.06;4984858;28;20556;-72
2023/08/02 10:15:06;;;;;;;2.33;1.17;;;;;;;18.13;100.00;98915.03;4988829;28;20081;-72
2023/08/02 10:17:32;;;;;;;1.48;0.80;;;;;;;18.06;100.00;98915.56;4988765;28;20330;-72
2023/08/02 10:20:00;;;;;;;3.13;1.02;;;;;;;17.98;100.00;98931.41;4994413;28;20046;-74
2023/08/02 10:22:27;;;;;;;1.40;0.75;;;;;;;17.91;100.00;98933.91;4986010;28;20046;-72
2023/08/02 10:24:54;;;;;;;0.60;0.47;;;;;;;17.82;100.00;98939.81;4986878;28;20050;-73
2023/08/02 10:27:22;;;;;;;0.70;0.55;;;;;;;17.80;100.00;98942.34;4988160;28;20085;-72
2023/08/02 10:29:49;;;;;;;1.55;0.73;;;;;;;17.78;100.00;98945.66;4990394;28;20049;-72
2023/08/02 10:32:18;;;;;;;8.68;0.73;;;;;;;17.81;100.00;98961.53;4972379;28;20120;-73
2023/08/02 10:34:50;;;;;;;3.63;0.95;;;;;;;17.72;100.00;98963.81;4990559;28;20537;-71
2023/08/02 10:37:19;;;;;;;3.03;1.38;;;;;;;17.84;100.00;98980.19;4988369;28;20046;-72
2023/08/02 10:39:45;;;;;;;1.83;1.25;;;;;;;17.79;100.00;98980.91;4990748;28;20046;-71
2023/08/02 10:42:17;;;;;;;4.47;1.88;;;;;;;17.90;100.00;98980.19;4988436;28;20109;-70
2023/08/02 10:44:55;;;;;;;1.10;0.60;;;;;;;17.83;100.00;98975.06;4975741;28;20058;-72
2023/08/02 10:47:35;;;;;;;4.85;1.42;;;;;;;18.15;100.00;98962.34;4989255;28;20046;-72
2023/08/02 10:50:03;;;;;;;1.85;0.93;;;;;;;18.23;100.00;98954.94;4989167;28;20081;-72
2023/08/02 10:52:31;;;;;;;3.58;1.20;;;;;;;18.49;100.00;98930.09;4988281;28;20077;-73
2023/08/02 10:55:12;;;;;;;1.42;0.70;;;;;;;18.66;100.00;98916.75;4988611;28;20050;-72
2023/08/02 10:57:41;;;;;;;0.98;0.80;;;;;;;18.82;100.00;98913.94;4981889;28;20074;-72
2023/08/02 11:00:16;;;;;;;1.45;0.90;;;;;;;19.16;100.00;98908.94;4982808;28;20642;-72
2023/08/02 11:02:49;;;;;;;1.27;0.80;;;;;;;19.13;100.00;98893.06;4981707;28;20081;-72
2023/08/02 11:05:35;;;;;;;0.50;0.43;;;;;;;19.25;100.00;98880.47;4987150;28;20784;-72
2023/08/02 11:08:02;;;;;;;4.28;0.60;;;;;;;19.37;100.00;98867.84;4986948;28;20061;-71
2023/08/02 11:10:28;;;;;;;0.43;0.43;;;;;;;19.63;100.00;98857.72;4985139;28;20050;-71
2023/08/02 11:12:55;;;;;;;0.68;0.60;;;;;;;19.73;100.00;98838.44;4987574;28;20046;-72
2023/08/02 11:15:22;;;;;;;0.60;0.32;;;;;;;19.73;100.00;98827.16;4989835;28;20054;-73
2023/08/02 11:17:56;;;;;;;0.70;0.45;;;;;;;19.57;100.00;98825.22;4988130;28;20129;-72
2023/08/02 11:20:25;;;;;;;0.67;0.20;;;;;;;19.64;100.00;98833.09;4987804;28;20100;-72
2023/08/02 11:22:53;;;;;;;0.68;0.47;;;;;;;19.73;100.00;98827.94;4987192;28;20369;-72
2023/08/02 11:25:21;;;;;;;0.45;0.20;;;;;;;19.66;100.00;98824.91;4986214;28;20077;-71